Time;durP1;ratioP1;P1;durP2;ratioP2;P2;SDS_P1;SDS_P2;PMS_P1;PMS_P2;Temp;Humidity;BMP_temperature;BMP_pressure;BME280_temperature;BME280_humidity;BME280_pressure;Samples;Min_cycle;Max_cycle;Signal;HPM_P1;HPM_P2
2022/08/11 00:00:09;;;;;;;2.78;1.52;;;;;;;17.62;62.75;96701.56;5070076;28;20039;-75
2022/08/11 00:02:49;;;;;;;3.42;2.03;;;;;;;17.66;62.69;96699.34;5087257;28;20466;-75
2022/08/11 00:05:18;;;;;;;5.22;1.90;;;;;;;17.48;63.39;96704.31;5087105;28;20090;-75
2022/08/11 00:07:50;;;;;;;3.75;1.92;;;;;;;17.49;63.98;96701.47;5064943;28;20319;-76
2022/08/11 00:10:20;;;;;;;5.38;2.17;;;;;;;17.39;64.31;96696.47;5096434;28;20032;-76
2022/08/11 00:13:02;;;;;;;3.53;2.00;;;;;;;17.30;65.56;96692.28;5087272;28;20038;-75
2022/08/11 00:15:40;;;;;;;4.43;2.50;;;;;;;17.29;64.86;96689.81;5085518;28;20412;-76
2022/08/11 00:18:06;;;;;;;3.15;2.03;;;;;;;17.28;65.20;96688.19;5070128;28;20488;-75
2022/08/11 00:20:35;;;;;;;2.92;2.00;;;;;;;17.28;65.29;96694.31;5065735;28;20024;-75
2022/08/11 00:23:15;;;;;;;3.50;2.35;;;;;;;17.18;65.93;96689.31;5085959;28;20036;-75
2022/08/11 00:25:47;;;;;;;5.18;2.20;;;;;;;17.10;67.54;96697.44;5067967;28;20039;-75
2022/08/11 00:28:32;;;;;;;4.22;1.63;;;;;;;17.15;66.97;96689.69;5088627;28;20493;-75
2022/08/11 00:31:10;;;;;;;4.03;2.03;;;;;;;17.09;67.59;96690.44;5086484;28;20032;-75
2022/08/11 00:33:42;;;;;;;19.88;14.68;;;;;;;17.03;67.32;96691.19;5067175;28;20119;-75
2022/08/11 00:36:11;;;;;;;5.88;2.78;;;;;;;16.99;67.52;96689.94;5085645;28;20032;-76
2022/08/11 00:38:40;;;;;;;4.20;2.03;;;;;;;16.91;68.73;96700.69;5081978;28;20077;-75
2022/08/11 00:41:15;;;;;;;3.47;2.10;;;;;;;16.88;69.18;96698.41;5085187;28;20119;-75
2022/08/11 00:43:53;;;;;;;5.47;2.22;;;;;;;16.93;69.25;96694.19;5082256;28;20485;-75
2022/08/11 00:46:41;;;;;;;5.07;1.92;;;;;;;16.69;71.63;96702.44;5083696;28;20039;-75
2022/08/11 00:49:45;;;;;;;5.90;2.40;;;;;;;16.61;71.87;96702.56;5079981;28;20037;-75
2022/08/11 00:52:23;;;;;;;4.93;2.50;;;;;;;16.54;72.92;96697.16;5085001;28;20028;-75
2022/08/11 00:55:04;;;;;;;4.75;2.30;;;;;;;16.66;72.28;96700.97;5082662;28;20044;-75
2022/08/11 00:58:07;;;;;;;6.35;2.60;;;;;;;16.41;74.24;96703.13;5077784;28;20698;-75
2022/08/11 01:00:57;;;;;;;4.80;2.53;;;;;;;16.41;74.87;96702.28;5083798;28;20408;-75
2022/08/11 01:04:07;;;;;;;15.95;4.10;;;;;;;16.45;74.40;96696.44;5078699;28;20426;-75
2022/08/11 01:07:09;;;;;;;5.38;2.30;;;;;;;16.45;74.11;96690.28;5077331;28;20028;-75
2022/08/11 01:09:41;;;;;;;6.60;2.00;;;;;;;16.44;74.02;96694.78;5084830;28;20093;-76
2022/08/11 01:12:41;;;;;;;4.80;2.47;;;;;;;16.39;74.65;96697.16;5078791;28;20038;-75
2022/08/11 01:15:12;;;;;;;4.70;2.00;;;;;;;16.32;75.44;96692.78;5085332;28;20701;-74
2022/08/11 01:17:53;;;;;;;7.30;2.70;;;;;;;16.35;74.85;96685.25;5067653;28;20040;-75
2022/08/11 01:20:37;;;;;;;3.20;1.90;;;;;;;16.21;75.63;96692.22;5085663;28;20070;-75
2022/08/11 01:23:28;;;;;;;6.43;2.43;;;;;;;16.30;75.61;96692.13;5085051;28;20490;-76
2022/08/11 01:26:01;;;;;;;4.90;2.30;;;;;;;16.39;75.28;96693.69;5084293;28;20405;-75
2022/08/11 01:28:30;;;;;;;7.88;3.63;;;;;;;16.40;75.14;96690.88;5086606;28;20028;-75
2022/08/11 01:31:40;;;;;;;4.00;2.70;;;;;;;16.34;75.35;96696.91;5086423;28;20036;-75
2022/08/11 01:34:19;;;;;;;5.40;2.33;;;;;;;16.33;75.82;96694.41;5077274;28;20044;-75
2022/08/11 01:36:55;;;;;;;5.23;2.20;;;;;;;16.39;75.16;96694.50;5065257;28;20131;-75
2022/08/11 01:40:00;;;;;;;3.80;2.07;;;;;;;16.40;75.78;96695.34;5083153;28;20043;-75
2022/08/11 01:45:41;;;;;;;5.10;2.27;;;;;;;16.10;78.29;96692.69;5078701;28;20028;-77
2022/08/11 01:48:19;;;;;;;5.63;2.53;;;;;;;16.17;78.16;96685.66;5083947;28;20028;-75
2022/08/11 01:51:11;;;;;;;5.20;2.40;;;;;;;16.18;78.33;96689.13;5078470;28;20043;-75
2022/08/11 01:54:01;;;;;;;5.07;2.20;;;;;;;16.13;78.48;96689.69;5079373;28;20039;-75
2022/08/11 01:56:50;;;;;;;5.43;2.60;;;;;;;16.05;79.29;96681.78;5084666;28;20115;-76
2022/08/11 01:59:23;;;;;;;4.40;2.30;;;;;;;16.00;80.13;96682.34;5086065;28;20117;-75
2022/08/11 02:02:07;;;;;;;7.00;2.47;;;;;;;16.02;79.60;96674.19;5087070;28;20043;-75
2022/08/11 02:04:48;;;;;;;6.37;2.43;;;;;;;15.93;80.01;96675.31;5082313;28;20032;-75
2022/08/11 02:07:35;;;;;;;4.87;2.77;;;;;;;15.80;81.78;96678.59;5086806;28;20028;-75
2022/08/11 02:13:24;;;;;;;6.07;2.40;;;;;;;15.84;82.36;96677.22;5079541;28;20036;-75
2022/08/11 02:15:56;;;;;;;5.17;2.37;;;;;;;15.87;81.95;96673.38;5088809;28;20032;-75
2022/08/11 02:24:49;;;;;;;5.63;3.07;;;;;;;15.84;81.96;96669.25;5091150;28;20039;-75
2022/08/11 02:27:22;;;;;;;4.40;2.50;;;;;;;15.59;84.15;96670.44;5085460;28;20074;-75
2022/08/11 02:30:08;;;;;;;5.13;2.22;;;;;;;15.62;83.48;96667.44;5091661;28;20044;-76
2022/08/11 02:36:07;;;;;;;5.00;2.70;;;;;;;15.61;84.25;96658.66;5097009;28;20047;-74
2022/08/11 02:38:32;;;;;;;4.47;2.37;;;;;;;15.65;84.08;96659.94;5104546;28;20032;-74
2022/08/11 02:44:19;;;;;;;6.60;2.43;;;;;;;15.68;83.84;96664.13;5090816;28;20036;-75
2022/08/11 02:47:09;;;;;;;4.60;2.30;;;;;;;15.60;84.14;96672.13;5068380;28;20032;-75
2022/08/11 02:50:04;;;;;;;5.10;2.67;;;;;;;15.70;83.50;96662.13;5089745;28;20036;-75
2022/08/11 02:52:58;;;;;;;4.23;2.30;;;;;;;15.55;84.42;96659.38;5085077;28;20054;-75
2022/08/11 02:56:12;;;;;;;5.83;2.70;;;;;;;15.65;84.33;96665.25;5065994;28;20534;-75
2022/08/11 03:02:09;;;;;;;5.17;2.67;;;;;;;15.63;84.80;96666.47;5071360;28;20032;-75
2022/08/11 03:04:54;;;;;;;6.17;2.67;;;;;;;15.52;85.50;96667.69;5088486;28;20043;-76
2022/08/11 03:07:47;;;;;;;6.63;2.67;;;;;;;15.46;86.33;96665.75;5080761;28;20032;-75
2022/08/11 03:10:40;;;;;;;5.38;2.53;;;;;;;15.31;87.17;96666.53;5080176;28;20032;-75
2022/08/11 03:16:45;;;;;;;4.57;2.50;;;;;;;15.33;87.91;96661.91;5087390;28;20042;-75
2022/08/11 03:19:17;;;;;;;4.40;2.37;;;;;;;15.19;88.91;96664.50;5086121;28;20032;-75
2022/08/11 03:21:51;;;;;;;5.40;2.83;;;;;;;15.22;89.21;96664.97;5084708;28;20032;-75
2022/08/11 03:24:17;;;;;;;5.97;2.50;;;;;;;15.14;89.97;96667.69;5065431;28;20024;-75
2022/08/11 03:26:54;;;;;;;4.90;2.70;;;;;;;15.13;89.33;96673.16;5065861;28;20043;-75
2022/08/11 03:29:41;;;;;;;4.03;2.17;;;;;;;15.09;90.38;96673.53;5075419;28;20036;-75
2022/08/11 03:32:10;;;;;;;5.53;2.70;;;;;;;15.04;90.81;96673.22;5084385;28;20120;-75
2022/08/11 03:34:39;;;;;;;5.87;2.37;;;;;;;14.92;91.74;96677.25;5085179;28;20028;-75
2022/08/11 03:43:45;;;;;;;4.40;2.53;;;;;;;14.80;93.47;96681.31;5088338;28;20108;-75
2022/08/11 03:46:34;;;;;;;5.30;3.07;;;;;;;14.90;92.78;96676.63;5086822;28;20839;-75
2022/08/11 03:49:14;;;;;;;5.17;2.80;;;;;;;14.89;92.79;96682.94;5086144;28;20489;-75
2022/08/11 03:52:11;;;;;;;5.33;2.30;;;;;;;14.93;92.98;96678.09;5081256;28;20396;-74
2022/08/11 03:55:06;;;;;;;5.67;2.50;;;;;;;14.87;93.34;96676.16;5086671;28;20199;-75
2022/08/11 03:57:58;;;;;;;5.23;2.27;;;;;;;14.77;94.47;96682.50;5080947;28;20031;-75
2022/08/11 04:01:01;;;;;;;5.10;2.20;;;;;;;14.76;94.64;96678.19;5086224;28;20054;-75
2022/08/11 04:03:35;;;;;;;7.82;2.97;;;;;;;14.77;94.83;96671.91;5087356;28;20028;-75
2022/08/11 04:06:33;;;;;;;5.37;2.70;;;;;;;14.66;95.74;96674.94;5085681;28;20405;-75
2022/08/11 04:09:17;;;;;;;5.53;2.30;;;;;;;14.73;95.24;96670.59;5079560;28;20033;-75
2022/08/11 04:12:10;;;;;;;5.87;2.80;;;;;;;14.64;96.05;96676.13;5069419;28;20541;-74
2022/08/11 04:18:00;;;;;;;5.60;2.50;;;;;;;14.67;95.93;96679.25;5081942;28;20039;-75
2022/08/11 04:20:31;;;;;;;;;;;;;;;14.66;95.73;96669.66;5084043;28;20032;-75
2022/08/11 04:23:15;;;;;;;3.73;2.40;;;;;;;14.64;96.35;96674.28;5085800;28;19912;-75
2022/08/11 04:26:11;;;;;;;5.67;3.07;;;;;;;14.68;96.50;96672.13;5081793;28;20036;-75
2022/08/11 04:29:00;;;;;;;4.57;2.53;;;;;;;14.73;95.95;96678.53;5076623;28;20115;-75
2022/08/11 04:31:37;;;;;;;4.70;2.67;;;;;;;14.74;96.11;96680.19;5081773;28;20028;-75
2022/08/11 04:35:03;;;;;;;5.20;2.90;;;;;;;14.79;96.00;96679.69;5066048;28;20124;-75
2022/08/11 04:37:53;;;;;;;4.97;2.57;;;;;;;14.74;96.39;96676.72;5070470;28;20040;-75
2022/08/11 04:41:02;;;;;;;4.87;2.60;;;;;;;14.73;96.91;96685.66;5084630;28;20024;-75
2022/08/11 04:44:12;;;;;;;4.40;2.70;;;;;;;15.66;95.85;96677.56;5080644;28;20039;-75
2022/08/11 04:47:09;;;;;;;10.37;3.20;;;;;;;15.64;90.51;96673.41;5047312;28;20048;-76
2022/08/11 05:02:47;;;;;;;6.72;3.03;;;;;;;15.42;92.83;96696.28;5078795;28;20054;-75
2022/08/11 05:05:31;;;;;;;4.63;2.50;;;;;;;15.50;92.06;96683.78;5086196;28;20032;-75
2022/08/11 05:08:22;;;;;;;5.83;2.80;;;;;;;15.50;91.63;96690.94;5076227;28;20034;-75
2022/08/11 05:10:56;;;;;;;6.93;2.90;;;;;;;15.58;91.50;96690.84;5084433;28;20035;-75
2022/08/11 05:36:35;;;;;;;4.90;2.40;;;;;;;16.83;85.12;96679.53;5084464;28;20111;-74
2022/08/11 05:58:37;;;;;;;5.18;2.65;;;;;;;18.67;73.37;96678.50;5083300;28;20481;-74
2022/08/11 06:01:04;;;;;;;5.38;2.83;;;;;;;18.80;71.05;96677.75;5085519;28;20114;-75
2022/08/11 06:04:12;;;;;;;8.18;2.75;;;;;;;18.99;70.86;96682.31;5083719;28;20115;-74
2022/08/11 06:06:20;;;;;;;8.70;2.75;;;;;;;19.39;68.01;96665.59;5078096;28;20032;-74
2022/08/11 06:08:48;;;;;;;5.20;2.45;;;;;;;19.48;67.05;96670.53;5090186;28;20040;-74
2022/08/11 06:11:17;;;;;;;4.45;2.53;;;;;;;19.47;67.17;96668.84;5089308;28;20036;-75
2022/08/11 06:13:47;;;;;;;4.57;2.55;;;;;;;19.67;67.25;96670.75;5071492;28;20393;-74
2022/08/11 06:16:19;;;;;;;7.80;2.80;;;;;;;19.79;65.01;96663.75;5087170;28;20063;-75
2022/08/11 06:18:46;;;;;;;4.63;2.65;;;;;;;20.12;64.67;96674.41;5081416;28;20089;-74
2022/08/11 06:21:14;;;;;;;5.40;2.60;;;;;;;19.72;66.04;96677.13;5087527;28;20093;-74
2022/08/11 06:23:41;;;;;;;6.57;3.15;;;;;;;20.40;63.92;96678.63;5087877;28;20541;-74
2022/08/11 06:26:12;;;;;;;8.88;3.03;;;;;;;20.32;64.58;96671.69;5089300;28;20040;-74
2022/08/11 06:28:43;;;;;;;4.72;2.70;;;;;;;20.28;63.96;96677.63;5089897;28;20059;-75
2022/08/11 06:31:16;;;;;;;5.95;3.10;;;;;;;20.34;63.68;96674.13;5087453;28;20035;-74
2022/08/11 06:33:53;;;;;;;5.15;3.13;;;;;;;20.23;63.92;96680.94;5082205;28;20489;-74
2022/08/11 06:36:45;;;;;;;8.23;3.40;;;;;;;20.64;61.13;96679.81;5081059;28;20034;-74
2022/08/11 06:39:22;;;;;;;6.53;2.97;;;;;;;21.42;57.82;96682.28;5088151;28;20951;-74
2022/08/11 06:41:52;;;;;;;7.85;2.50;;;;;;;21.45;58.46;96676.50;5082767;28;20028;-74
2022/08/11 06:44:27;;;;;;;6.80;3.03;;;;;;;21.29;58.40;96683.16;5083234;28;20477;-74
2022/08/11 06:46:59;;;;;;;4.95;2.88;;;;;;;21.54;57.40;96685.09;5086392;28;20040;-75
2022/08/11 06:52:32;;;;;;;9.95;3.13;;;;;;;21.24;59.04;96688.34;5087392;28;20028;-75
2022/08/11 06:55:05;;;;;;;6.10;2.55;;;;;;;21.45;57.96;96678.38;5086443;28;20557;-74
2022/08/11 07:00:29;;;;;;;6.78;3.10;;;;;;;21.58;55.60;96692.47;5077220;28;20111;-74
2022/08/11 07:03:02;;;;;;;;;;;;;;;22.14;53.48;96680.03;5088866;28;20504;-75
2022/08/11 07:05:42;;;;;;;5.13;2.90;;;;;;;22.27;53.76;96674.59;5073619;28;19954;-75
2022/08/11 07:17:16;;;;;;;5.00;2.85;;;;;;;22.59;50.78;96679.78;5082606;28;20595;-74
2022/08/11 07:31:13;;;;;;;7.05;2.60;;;;;;;22.49;48.54;96668.78;5084827;28;20089;-75
2022/08/11 07:33:49;;;;;;;7.68;2.75;;;;;;;22.93;47.72;96666.81;5081195;28;20032;-74
2022/08/11 07:36:17;;;;;;;4.45;2.92;;;;;;;23.67;46.14;96657.44;5082674;28;20054;-76
2022/08/11 07:38:49;;;;;;;9.43;2.42;;;;;;;23.93;45.26;96660.78;5081988;28;20032;-75
2022/08/11 07:41:21;;;;;;;5.53;2.72;;;;;;;23.49;45.38;96661.03;5087475;28;20035;-75
2022/08/11 07:44:07;;;;;;;6.03;2.35;;;;;;;23.90;44.68;96658.56;5068199;28;20039;-74
2022/08/11 07:52:31;;;;;;;4.90;2.70;;;;;;;24.81;42.03;96651.66;5085975;28;20860;-75
2022/08/11 07:55:15;;;;;;;5.72;2.65;;;;;;;23.62;44.95;96645.78;5088517;28;20124;-75
2022/08/11 08:19:53;;;;;;;5.53;2.58;;;;;;;25.46;38.63;96652.34;5082344;28;20028;-74
2022/08/11 08:22:21;;;;;;;11.15;2.63;;;;;;;26.07;37.05;96643.34;5086448;28;20067;-73
2022/08/11 08:24:47;;;;;;;4.15;1.95;;;;;;;26.14;36.84;96655.84;5078035;28;20627;-74
2022/08/11 08:27:14;;;;;;;7.82;2.72;;;;;;;26.04;36.46;96634.94;5085479;28;20045;-74
2022/08/11 08:32:27;;;;;;;3.58;2.20;;;;;;;26.26;35.64;96648.47;5079011;28;20056;-74
2022/08/11 08:34:57;;;;;;;5.57;2.78;;;;;;;26.17;35.73;96652.66;5079430;28;20517;-74
2022/08/11 08:37:27;;;;;;;4.93;2.58;;;;;;;25.14;37.08;96645.59;5084247;28;20028;-74
2022/08/11 08:39:54;;;;;;;7.30;2.20;;;;;;;25.95;35.88;96653.41;5086676;28;20031;-74
2022/08/11 08:42:29;;;;;;;4.22;2.00;;;;;;;25.53;36.24;96648.41;5083139;28;20016;-75
2022/08/11 08:45:04;;;;;;;6.28;2.22;;;;;;;26.38;34.61;96641.06;5082685;28;20032;-74
2022/08/11 08:47:34;;;;;;;6.43;2.35;;;;;;;25.91;34.81;96649.59;5077269;28;20461;-74
2022/08/11 08:50:04;;;;;;;5.43;2.28;;;;;;;26.23;34.51;96647.09;5084622;28;20035;-74
2022/08/11 08:52:39;;;;;;;7.95;2.50;;;;;;;27.35;32.73;96642.22;5084882;28;20385;-74
2022/08/11 08:55:08;;;;;;;3.83;2.03;;;;;;;26.51;33.51;96664.19;5084224;28;20028;-74
2022/08/11 08:57:36;;;;;;;4.55;1.90;;;;;;;26.40;33.15;96636.25;5084738;28;20089;-74
2022/08/11 09:00:04;;;;;;;4.32;2.42;;;;;;;26.98;32.31;96645.59;5082825;28;20722;-75
2022/08/11 09:02:30;;;;;;;4.95;1.90;;;;;;;26.62;32.61;96648.97;5085110;28;20099;-75
2022/08/11 09:04:57;;;;;;;6.13;2.03;;;;;;;27.63;31.35;96653.81;5087326;28;20032;-75
2022/08/11 09:07:25;;;;;;;3.00;1.90;;;;;;;27.03;31.93;96645.66;5087909;28;20034;-75
2022/08/11 09:09:53;;;;;;;5.45;2.28;;;;;;;27.04;31.68;96641.09;5096053;28;20036;-75
2022/08/11 09:12:20;;;;;;;5.32;1.90;;;;;;;28.32;30.05;96640.25;5088875;28;20032;-75
2022/08/11 09:15:06;;;;;;;3.50;2.17;;;;;;;27.67;30.78;96644.94;5083235;28;20773;-75
2022/08/11 09:17:37;;;;;;;3.47;1.80;;;;;;;27.31;31.09;96643.81;5084868;28;20125;-75
2022/08/11 09:20:10;;;;;;;4.22;2.00;;;;;;;27.88;30.13;96637.81;5085834;28;20040;-75
2022/08/11 09:28:16;;;;;;;3.20;1.85;;;;;;;28.20;29.40;96639.63;5086271;28;20036;-75
2022/08/11 09:30:52;;;;;;;4.68;1.98;;;;;;;27.90;29.75;96654.59;5085532;28;20077;-75
2022/08/11 09:33:19;;;;;;;5.35;2.20;;;;;;;28.20;29.44;96642.34;5086577;28;20024;-75
2022/08/11 09:35:47;;;;;;;4.05;1.95;;;;;;;28.30;29.62;96642.41;5085157;28;20047;-75
2022/08/11 09:41:04;;;;;;;5.20;2.22;;;;;;;30.36;27.54;96637.09;5080865;28;20043;-76
2022/08/11 09:46:15;;;;;;;4.82;2.20;;;;;;;30.37;26.96;96625.16;5080150;28;20097;-75
2022/08/11 09:48:46;;;;;;;3.38;1.75;;;;;;;29.30;26.21;96642.25;5086340;28;20037;-75
2022/08/11 09:51:12;;;;;;;4.18;1.92;;;;;;;29.66;25.82;96638.81;5066657;28;20504;-75
2022/08/11 09:53:41;;;;;;;3.78;1.55;;;;;;;28.05;27.07;96634.16;5082559;28;20039;-75
2022/08/11 09:59:03;;;;;;;3.72;1.98;;;;;;;29.52;25.97;96635.78;5083385;28;20062;-75
2022/08/11 10:01:41;;;;;;;5.20;1.70;;;;;;;29.47;26.01;96639.31;5083012;28;20023;-75
2022/08/11 10:04:09;;;;;;;5.72;1.80;;;;;;;29.47;26.29;96622.22;5083549;28;20031;-75
2022/08/11 10:09:24;;;;;;;2.67;1.90;;;;;;;29.73;25.72;96629.31;5085064;28;20057;-76
2022/08/11 10:11:55;;;;;;;4.85;1.88;;;;;;;29.96;24.40;96629.84;5085957;28;20793;-75
2022/08/11 10:17:23;;;;;;;4.10;2.05;;;;;;;30.51;23.97;96626.19;5022847;28;20047;-75
2022/08/11 10:19:51;;;;;;;2.95;1.70;;;;;;;27.78;27.12;96628.84;5050597;28;20044;-75
2022/08/11 10:27:53;;;;;;;4.25;1.98;;;;;;;30.27;24.67;96607.00;5080729;28;20036;-74
2022/08/11 10:35:48;;;;;;;5.25;1.70;;;;;;;29.89;24.36;96613.84;5081379;28;20446;-74
2022/08/11 10:38:14;;;;;;;4.03;1.80;;;;;;;30.09;24.61;96612.19;5088212;28;20062;-74
2022/08/11 10:40:46;;;;;;;2.42;1.73;;;;;;;28.92;25.19;96623.75;5087156;28;20035;-75
2022/08/11 10:43:13;;;;;;;3.95;1.55;;;;;;;29.14;25.20;96602.69;5088384;28;20036;-74
2022/08/11 10:48:30;;;;;;;5.57;1.65;;;;;;;30.49;23.55;96589.56;5085389;28;20039;-74
2022/08/11 10:51:12;;;;;;;3.85;1.65;;;;;;;29.39;23.88;96603.81;5089085;28;20063;-74
2022/08/11 10:59:14;;;;;;;3.83;1.60;;;;;;;29.93;22.84;96585.09;5088730;28;20974;-75
2022/08/11 11:01:42;;;;;;;5.40;2.00;;;;;;;29.08;23.99;96591.06;5085458;28;20059;-75
2022/08/11 11:04:22;;;;;;;2.50;1.50;;;;;;;29.50;23.36;96581.03;5089658;28;20036;-74
2022/08/11 11:07:04;;;;;;;3.45;1.60;;;;;;;29.70;22.53;96583.78;5088670;28;20043;-74
2022/08/11 11:09:33;;;;;;;2.83;1.60;;;;;;;29.18;23.50;96582.13;5081928;28;20090;-75
2022/08/11 11:18:00;;;;;;;9.02;6.32;;;;;;;29.87;22.89;96579.94;5086083;28;20099;-75
2022/08/11 11:20:38;;;;;;;7.55;2.47;;;;;;;29.64;23.36;96578.63;5080018;28;20028;-74
2022/08/11 11:23:15;;;;;;;3.83;1.70;;;;;;;29.44;23.29;96565.88;5087034;28;20081;-74
2022/08/11 11:26:05;;;;;;;4.63;1.60;;;;;;;30.83;22.56;96557.13;5083326;28;20039;-75
2022/08/11 11:28:59;;;;;;;3.08;1.65;;;;;;;30.16;22.57;96572.84;5086656;28;20043;-74
2022/08/11 11:32:02;;;;;;;3.17;1.73;;;;;;;29.80;22.75;96578.34;5077029;28;20028;-75
2022/08/11 11:34:40;;;;;;;;;;;;;;;30.74;21.45;96559.56;5078554;28;20056;-74
2022/08/11 11:37:06;;;;;;;3.10;1.70;;;;;;;31.90;20.40;96555.50;5077743;28;19923;-75
2022/08/11 11:39:34;;;;;;;2.80;1.48;;;;;;;30.65;21.99;96553.13;5077838;28;20028;-75
2022/08/11 11:42:06;;;;;;;4.78;1.90;;;;;;;30.44;22.10;96559.72;5056166;28;20032;-74
2022/08/11 11:44:34;;;;;;;2.63;1.40;;;;;;;30.42;21.50;96551.88;5076359;28;20032;-75
2022/08/11 11:47:00;;;;;;;2.53;1.48;;;;;;;29.64;22.63;96556.94;5076874;28;20093;-76
2022/08/11 11:49:28;;;;;;;2.05;1.27;;;;;;;30.35;22.08;96553.25;5077345;28;20481;-76
2022/08/11 11:51:56;;;;;;;2.92;1.52;;;;;;;30.71;21.91;96560.13;5066309;28;20625;-75
2022/08/11 11:54:32;;;;;;;4.97;1.70;;;;;;;30.29;22.29;96568.75;5078841;28;20039;-75
2022/08/11 12:01:14;;;;;;;3.25;1.27;;;;;;;30.52;21.86;96551.84;5078903;28;20028;-75
2022/08/11 12:02:36;;;;;;;2.10;1.23;;;;;;;32.20;20.87;96545.38;5078955;28;20043;-75
2022/08/11 12:05:04;;;;;;;3.22;1.95;;;;;;;31.72;21.07;96545.28;5078679;28;20524;-75
2022/08/11 12:10:17;;;;;;;2.70;1.38;;;;;;;32.35;21.14;96540.53;5084439;28;20244;-75
2022/08/11 12:15:29;;;;;;;3.20;1.75;;;;;;;29.66;22.28;96544.75;5080663;28;20485;-76
2022/08/11 12:17:57;;;;;;;2.60;1.55;;;;;;;29.52;22.48;96543.66;5080176;28;20032;-74
2022/08/11 12:20:24;;;;;;;4.20;1.63;;;;;;;29.53;23.20;96548.00;5077414;28;20025;-74
2022/08/11 12:28:21;;;;;;;2.85;1.60;;;;;;;31.27;21.42;96528.28;5063159;28;20028;-75
2022/08/11 12:30:49;;;;;;;2.08;1.50;;;;;;;31.12;21.28;96523.78;5063255;28;20378;-75
2022/08/11 12:33:17;;;;;;;2.15;1.40;;;;;;;30.86;21.75;96531.31;5059746;28;20036;-74
2022/08/11 12:35:43;;;;;;;2.50;1.40;;;;;;;31.87;20.32;96512.53;5063785;28;21068;-75
2022/08/11 12:38:09;;;;;;;3.95;1.40;;;;;;;32.48;20.47;96508.28;5060590;28;20029;-75
2022/08/11 12:46:22;;;;;;;6.35;1.73;;;;;;;31.23;20.84;96509.03;5067897;28;20067;-75
2022/08/11 12:51:57;;;;;;;3.35;1.45;;;;;;;30.99;20.76;96507.03;5070946;28;20040;-76
2022/08/11 12:54:41;;;;;;;2.90;1.40;;;;;;;31.40;20.81;96500.50;5058938;28;20082;-75
2022/08/11 13:05:44;;;;;;;2.30;1.50;;;;;;;31.15;20.73;96482.47;5082913;28;20032;-76
2022/08/11 13:08:13;;;;;;;3.72;1.60;;;;;;;31.20;21.28;96480.50;5082837;28;20036;-75
2022/08/11 13:13:25;;;;;;;3.22;1.60;;;;;;;31.05;21.61;96483.34;5076502;28;20167;-76
2022/08/11 13:15:52;;;;;;;3.88;1.55;;;;;;;30.87;21.74;96484.84;5074445;28;20035;-75
2022/08/11 13:18:21;;;;;;;3.30;1.98;;;;;;;30.43;21.77;96480.22;5077213;28;20853;-76
2022/08/11 13:20:57;;;;;;;3.10;1.63;;;;;;;31.13;21.59;96481.94;5073570;28;20115;-75
2022/08/11 13:23:24;;;;;;;4.47;1.88;;;;;;;30.10;22.46;96484.44;5059519;28;20032;-75
2022/08/11 13:25:53;;;;;;;4.07;1.55;;;;;;;30.06;22.31;96488.78;5070228;28;20024;-75
2022/08/11 13:28:21;;;;;;;4.13;1.73;;;;;;;28.47;23.88;96485.34;5063579;28;20035;-75
2022/08/11 13:33:50;;;;;;;6.20;1.70;;;;;;;29.98;22.41;96475.78;5051651;28;20048;-74
2022/08/11 13:36:19;;;;;;;2.08;1.38;;;;;;;30.77;21.35;96466.72;5058403;28;20111;-75
2022/08/11 13:38:46;;;;;;;2.55;1.33;;;;;;;31.11;22.12;96468.63;5072323;28;20289;-74
2022/08/11 13:43:58;;;;;;;3.78;1.80;;;;;;;30.65;22.15;96460.00;5063788;28;20032;-75
2022/08/11 13:46:26;;;;;;;3.03;1.50;;;;;;;30.59;21.65;96456.53;5064636;28;20033;-75
2022/08/11 13:48:54;;;;;;;3.63;1.67;;;;;;;30.82;21.40;96463.19;5080991;28;20061;-75
2022/08/11 13:51:41;;;;;;;4.28;1.88;;;;;;;30.75;21.56;96460.75;5060546;28;20036;-76
2022/08/11 13:54:09;;;;;;;4.22;1.60;;;;;;;30.19;22.05;96461.09;5062149;28;20036;-76
2022/08/11 13:56:42;;;;;;;2.55;1.67;;;;;;;30.17;21.79;96457.00;5056802;28;20089;-77
2022/08/11 13:59:09;;;;;;;3.78;1.75;;;;;;;29.81;22.55;96459.84;5064251;28;20036;-76
2022/08/11 14:01:42;;;;;;;3.90;1.25;;;;;;;28.77;23.10;96460.25;5058429;28;20035;-76
2022/08/11 14:04:15;;;;;;;3.60;1.80;;;;;;;29.36;22.29;96440.72;5059196;28;20028;-76
2022/08/11 14:06:50;;;;;;;4.97;1.90;;;;;;;29.71;22.51;96449.06;5057966;28;20063;-75
2022/08/11 14:09:24;;;;;;;2.55;1.67;;;;;;;28.73;23.33;96461.84;5054455;28;20032;-77
2022/08/11 14:14:38;;;;;;;4.45;1.80;;;;;;;29.60;22.74;96442.84;5068889;28;20113;-77
2022/08/11 14:17:07;;;;;;;2.42;1.60;;;;;;;29.52;22.57;96441.50;5064283;28;20071;-73
2022/08/11 14:19:40;;;;;;;2.20;1.50;;;;;;;29.61;22.81;96447.19;5064856;28;20541;-76
2022/08/11 14:22:06;;;;;;;4.22;1.60;;;;;;;29.48;22.86;96445.03;5065400;28;20077;-76
2022/08/11 14:24:35;;;;;;;4.70;1.60;;;;;;;29.09;23.03;96442.94;5067616;28;20122;-78
2022/08/11 14:27:02;;;;;;;3.92;1.45;;;;;;;28.67;23.89;96447.50;5070119;28;20027;-73
2022/08/11 14:29:28;;;;;;;2.63;1.52;;;;;;;29.50;23.34;96438.25;5072792;28;20089;-77
2022/08/11 14:31:57;;;;;;;3.28;1.50;;;;;;;29.80;23.03;96431.94;5077128;28;20121;-73
2022/08/11 14:34:25;;;;;;;3.75;1.75;;;;;;;28.72;23.57;96443.19;5062132;28;20051;-78
2022/08/11 14:36:54;;;;;;;2.05;1.52;;;;;;;29.26;23.48;96437.22;5071841;28;20035;-76
2022/08/11 14:39:25;;;;;;;5.68;1.80;;;;;;;29.29;23.53;96436.66;5073067;28;20076;-78
2022/08/11 14:47:52;;;;;;;6.75;2.60;;;;;;;29.01;24.09;96429.94;5061611;28;20064;-78
2022/08/11 14:50:24;;;;;;;3.28;1.80;;;;;;;28.93;23.94;96423.13;5062913;28;20405;-76
2022/08/11 14:52:52;;;;;;;5.82;1.65;;;;;;;29.66;23.50;96408.44;5075602;28;20039;-74
2022/08/11 14:58:11;;;;;;;5.47;2.00;;;;;;;29.24;23.12;96410.41;5077580;28;20123;-78
2022/08/11 15:03:59;;;;;;;3.10;1.60;;;;;;;29.10;23.67;96406.63;5077170;28;20550;-76
2022/08/11 15:06:27;;;;;;;1.70;1.40;;;;;;;29.06;23.54;96405.56;5072797;28;20060;-77
2022/08/11 15:08:53;;;;;;;4.68;1.70;;;;;;;28.99;23.28;96413.94;5086145;28;20804;-78
2022/08/11 15:17:06;;;;;;;3.95;1.50;;;;;;;28.66;23.83;96412.59;5079036;28;20028;-78
2022/08/11 15:17:09;;;;;;;4.60;1.48;;;;;;;28.77;23.96;96411.53;5073583;28;20036;-74
2022/08/11 15:24:18;;;;;;;3.00;1.20;;;;;;;28.48;23.72;96396.91;5066876;28;20032;-77
2022/08/11 15:25:10;;;;;;;3.72;1.60;;;;;;;28.40;24.27;96400.91;5073071;28;20043;-76
2022/08/11 15:38:57;;;;;;;6.07;1.63;;;;;;;28.28;24.03;96384.13;5071546;28;20102;-76
2022/08/11 15:47:17;;;;;;;3.25;1.60;;;;;;;27.70;24.84;96386.91;5066644;28;20120;-73
2022/08/11 15:49:45;;;;;;;3.15;1.52;;;;;;;27.85;24.63;96387.00;5064075;28;20056;-77
2022/08/11 15:52:16;;;;;;;3.17;1.70;;;;;;;27.72;24.69;96382.03;5045030;28;20038;-76
2022/08/11 15:54:47;;;;;;;4.03;1.67;;;;;;;27.81;25.23;96390.50;5062203;28;20036;-75
2022/08/11 16:05:21;;;;;;;3.97;1.58;;;;;;;27.89;25.47;96369.16;5053033;28;20035;-77
2022/08/11 16:07:50;;;;;;;3.00;1.50;;;;;;;27.87;25.22;96365.94;5067559;28;20024;-77
2022/08/11 16:10:20;;;;;;;3.63;1.95;;;;;;;27.87;25.07;96371.31;5064993;28;20024;-76
2022/08/11 16:18:20;;;;;;;2.80;1.42;;;;;;;27.58;24.86;96370.09;5054901;28;20027;-76
2022/08/11 16:20:49;;;;;;;4.03;1.55;;;;;;;27.69;24.74;96363.66;5047944;28;20033;-77
2022/08/11 16:23:17;;;;;;;2.72;1.40;;;;;;;27.75;24.82;96362.59;5053427;28;20564;-74
2022/08/11 16:25:45;;;;;;;2.70;1.55;;;;;;;27.50;24.47;96374.94;5052972;28;20119;-76
2022/08/11 16:28:12;;;;;;;2.22;1.23;;;;;;;27.30;24.17;96372.16;5032496;28;20044;-74
2022/08/11 16:30:40;;;;;;;4.43;1.67;;;;;;;27.04;24.54;96363.88;5048385;28;20050;-76
2022/08/11 16:33:08;;;;;;;5.07;1.42;;;;;;;27.30;24.52;96360.50;5048355;28;20126;-76
2022/08/11 16:38:35;;;;;;;2.38;1.73;;;;;;;27.32;24.59;96359.19;5048934;28;20071;-74
2022/08/11 16:41:10;;;;;;;2.92;1.67;;;;;;;27.33;24.86;96357.28;5060188;28;20090;-73
2022/08/11 16:49:24;;;;;;;3.53;1.60;;;;;;;27.01;25.28;96347.38;5057322;28;20036;-73
2022/08/11 16:51:51;;;;;;;4.30;1.75;;;;;;;26.72;25.72;96338.81;5055482;28;20106;-76
2022/08/11 16:54:18;;;;;;;3.70;1.80;;;;;;;26.79;25.54;96342.09;5054482;28;20039;-76
2022/08/11 16:56:50;;;;;;;3.80;1.83;;;;;;;26.92;25.41;96338.94;5056434;28;20539;-75
2022/08/11 16:59:21;;;;;;;6.80;2.55;;;;;;;26.77;25.96;96346.97;5051637;28;20067;-76
2022/08/11 17:01:53;;;;;;;3.78;1.73;;;;;;;26.86;25.95;96348.09;5056838;28;20028;-74
2022/08/11 17:13:09;;;;;;;2.75;1.42;;;;;;;26.72;26.31;96336.13;5055905;28;20123;-76